sensor_id;sensor_type;location;lat;lon;timestamp;pressure;altitude;pressure_sealevel;temperature;humidity
70781;BME280;72716;48.814;2.126;2023-12-20T11:18:28;100943.94;;;7.77;100.00
70781;BME280;72716;48.814;2.126;2023-12-20T11:20:54;100946.75;;;8.38;100.00
70781;BME280;72716;48.814;2.126;2023-12-20T11:23:19;100945.88;;;8.90;97.60
70781;BME280;72716;48.814;2.126;2023-12-20T11:26:03;100933.88;;;9.05;94.69
70781;BME280;72716;48.814;2.126;2023-12-20T11:28:29;100942.50;;;9.66;89.62
70781;BME280;72716;48.814;2.126;2023-12-20T11:30:58;100924.41;;;9.86;87.82
70781;BME280;72716;48.814;2.126;2023-12-20T11:33:27;100940.47;;;10.24;86.22
70781;BME280;72716;48.814;2.126;2023-12-20T11:35:59;100935.09;;;8.68;90.42
70781;BME280;72716;48.814;2.126;2023-12-20T11:38:25;100929.84;;;8.14;94.75
70781;BME280;72716;48.814;2.126;2023-12-20T11:40:51;100921.31;;;7.73;97.41
70781;BME280;72716;48.814;2.126;2023-12-20T11:43:35;100918.19;;;7.47;100.00
70781;BME280;72716;48.814;2.126;2023-12-20T11:46:08;100911.59;;;8.14;98.64
70781;BME280;72716;48.814;2.126;2023-12-20T11:48:38;100894.09;;;8.07;98.33
70781;BME280;72716;48.814;2.126;2023-12-20T11:51:13;100896.47;;;8.45;98.84
70781;BME280;72716;48.814;2.126;2023-12-20T11:53:39;100889.97;;;8.74;96.78
70781;BME280;72716;48.814;2.126;2023-12-20T11:56:06;100898.78;;;8.26;97.39
70781;BME280;72716;48.814;2.126;2023-12-20T11:58:32;100910.81;;;8.18;97.70
70781;BME280;72716;48.814;2.126;2023-12-20T12:00:58;100904.94;;;8.32;98.42
70781;BME280;72716;48.814;2.126;2023-12-20T12:03:24;100908.81;;;8.05;98.54
70781;BME280;72716;48.814;2.126;2023-12-20T12:05:50;100903.09;;;7.75;99.59
70781;BME280;72716;48.814;2.126;2023-12-20T12:08:16;100892.53;;;7.69;100.00
70781;BME280;72716;48.814;2.126;2023-12-20T12:10:43;100900.34;;;7.67;100.00
70781;BME280;72716;48.814;2.126;2023-12-20T12:13:09;100906.06;;;7.49;100.00
70781;BME280;72716;48.814;2.126;2023-12-20T12:15:35;100901.59;;;7.43;100.00
70781;BME280;72716;48.814;2.126;2023-12-20T12:18:01;100905.00;;;7.39;100.00
70781;BME280;72716;48.814;2.126;2023-12-20T12:20:26;100903.19;;;7.35;100.00
70781;BME280;72716;48.814;2.126;2023-12-20T13:02:57;100842.28;;;7.74;100.00
70781;BME280;72716;48.814;2.126;2023-12-20T13:05:22;100837.47;;;7.98;100.00
70781;BME280;72716;48.814;2.126;2023-12-20T13:07:48;100831.28;;;7.91;100.00
70781;BME280;72716;48.814;2.126;2023-12-20T13:10:13;100832.25;;;7.96;100.00
70781;BME280;72716;48.814;2.126;2023-12-20T13:12:42;100822.44;;;7.81;100.00
70781;BME280;72716;48.814;2.126;2023-12-20T13:15:07;100812.09;;;7.86;100.00
70781;BME280;72716;48.814;2.126;2023-12-20T13:17:34;100805.22;;;7.89;100.00
70781;BME280;72716;48.814;2.126;2023-12-20T13:19:59;100803.31;;;7.81;100.00
70781;BME280;72716;48.814;2.126;2023-12-20T13:22:24;100806.63;;;8.24;100.00
70781;BME280;72716;48.814;2.126;2023-12-20T13:24:50;100799.28;;;8.56;100.00
70781;BME280;72716;48.814;2.126;2023-12-20T13:27:15;100802.03;;;8.67;100.00
70781;BME280;72716;48.814;2.126;2023-12-20T13:29:41;100799.34;;;8.62;100.00
70781;BME280;72716;48.814;2.126;2023-12-20T13:32:06;100799.06;;;8.43;100.00
70781;BME280;72716;48.814;2.126;2023-12-20T13:34:32;100797.41;;;8.48;100.00
70781;BME280;72716;48.814;2.126;2023-12-20T13:36:57;100799.03;;;8.40;100.00
70781;BME280;72716;48.814;2.126;2023-12-20T13:39:23;100792.00;;;8.36;100.00
70781;BME280;72716;48.814;2.126;2023-12-20T13:41:48;100785.00;;;8.32;100.00
70781;BME280;72716;48.814;2.126;2023-12-20T13:44:14;100783.13;;;8.21;100.00
70781;BME280;72716;48.814;2.126;2023-12-20T13:46:42;100781.34;;;8.19;100.00
70781;BME280;72716;48.814;2.126;2023-12-20T13:49:08;100762.97;;;8.09;100.00
70781;BME280;72716;48.814;2.126;2023-12-20T13:51:33;100770.75;;;8.08;100.00
70781;BME280;72716;48.814;2.126;2023-12-20T13:53:58;100767.31;;;8.10;100.00
70781;BME280;72716;48.814;2.126;2023-12-20T13:56:24;100765.44;;;8.01;100.00
